sensor_id;sensor_type;location;lat;lon;timestamp;P1;durP1;ratioP1;P2;durP2;ratioP2
3843;SDS011;1937;51.444;6.484;2023-07-13T00:01:39;5.90;;;1.80;;
3843;SDS011;1937;51.444;6.484;2023-07-13T00:04:06;8.00;;;1.77;;
3843;SDS011;1937;51.444;6.484;2023-07-13T00:06:32;4.00;;;2.07;;
3843;SDS011;1937;51.444;6.484;2023-07-13T00:09:00;3.33;;;2.70;;
3843;SDS011;1937;51.444;6.484;2023-07-13T00:11:27;3.57;;;1.80;;
3843;SDS011;1937;51.444;6.484;2023-07-13T00:13:54;3.00;;;1.77;;
3843;SDS011;1937;51.444;6.484;2023-07-13T00:16:21;2.97;;;1.77;;
3843;SDS011;1937;51.444;6.484;2023-07-13T00:18:48;5.10;;;2.10;;
3843;SDS011;1937;51.444;6.484;2023-07-13T00:21:15;5.47;;;2.53;;
3843;SDS011;1937;51.444;6.484;2023-07-13T00:23:41;4.40;;;1.90;;
3843;SDS011;1937;51.444;6.484;2023-07-13T00:26:09;5.80;;;2.73;;
3843;SDS011;1937;51.444;6.484;2023-07-13T00:28:37;5.13;;;2.00;;
3843;SDS011;1937;51.444;6.484;2023-07-13T00:31:05;5.57;;;2.50;;
3843;SDS011;1937;51.444;6.484;2023-07-13T00:33:33;6.50;;;2.23;;
3843;SDS011;1937;51.444;6.484;2023-07-13T00:36:00;5.53;;;2.03;;
3843;SDS011;1937;51.444;6.484;2023-07-13T00:38:26;4.20;;;1.70;;
3843;SDS011;1937;51.444;6.484;2023-07-13T00:40:53;3.57;;;2.17;;
3843;SDS011;1937;51.444;6.484;2023-07-13T00:43:20;9.77;;;2.20;;
3843;SDS011;1937;51.444;6.484;2023-07-13T00:48:50;8.70;;;2.93;;
3843;SDS011;1937;51.444;6.484;2023-07-13T00:51:24;7.70;;;2.07;;
3843;SDS011;1937;51.444;6.484;2023-07-13T00:53:55;4.00;;;1.97;;
3843;SDS011;1937;51.444;6.484;2023-07-13T00:56:23;4.27;;;2.43;;
3843;SDS011;1937;51.444;6.484;2023-07-13T00:58:50;5.53;;;2.13;;
3843;SDS011;1937;51.444;6.484;2023-07-13T01:01:18;6.10;;;1.70;;
3843;SDS011;1937;51.444;6.484;2023-07-13T01:03:45;4.27;;;2.20;;
3843;SDS011;1937;51.444;6.484;2023-07-13T01:06:13;3.27;;;2.00;;
3843;SDS011;1937;51.444;6.484;2023-07-13T01:08:42;2.97;;;1.77;;
3843;SDS011;1937;51.444;6.484;2023-07-13T01:11:09;8.97;;;3.13;;
3843;SDS011;1937;51.444;6.484;2023-07-13T01:13:35;3.27;;;2.13;;
3843;SDS011;1937;51.444;6.484;2023-07-13T01:16:03;3.53;;;2.13;;
3843;SDS011;1937;51.444;6.484;2023-07-13T01:18:38;5.97;;;2.00;;
3843;SDS011;1937;51.444;6.484;2023-07-13T01:21:06;4.97;;;2.03;;
3843;SDS011;1937;51.444;6.484;2023-07-13T01:23:33;4.30;;;2.40;;
3843;SDS011;1937;51.444;6.484;2023-07-13T01:26:00;4.10;;;2.00;;
3843;SDS011;1937;51.444;6.484;2023-07-13T01:28:27;4.33;;;1.87;;
3843;SDS011;1937;51.444;6.484;2023-07-13T01:30:55;3.80;;;2.00;;
3843;SDS011;1937;51.444;6.484;2023-07-13T01:33:24;4.40;;;2.60;;
3843;SDS011;1937;51.444;6.484;2023-07-13T01:35:51;7.77;;;2.27;;
3843;SDS011;1937;51.444;6.484;2023-07-13T01:38:20;5.10;;;2.20;;
3843;SDS011;1937;51.444;6.484;2023-07-13T01:40:48;9.47;;;2.10;;
3843;SDS011;1937;51.444;6.484;2023-07-13T01:43:15;3.77;;;1.83;;
3843;SDS011;1937;51.444;6.484;2023-07-13T01:45:42;3.83;;;2.33;;
3843;SDS011;1937;51.444;6.484;2023-07-13T01:48:10;3.90;;;1.87;;
3843;SDS011;1937;51.444;6.484;2023-07-13T01:50:36;6.37;;;2.80;;
3843;SDS011;1937;51.444;6.484;2023-07-13T01:53:04;7.33;;;2.33;;
3843;SDS011;1937;51.444;6.484;2023-07-13T01:55:33;8.47;;;3.43;;
3843;SDS011;1937;51.444;6.484;2023-07-13T01:58:00;6.37;;;2.30;;
3843;SDS011;1937;51.444;6.484;2023-07-13T02:00:27;5.20;;;1.80;;
3843;SDS011;1937;51.444;6.484;2023-07-13T02:02:53;3.33;;;2.13;;
3843;SDS011;1937;51.444;6.484;2023-07-13T02:05:20;2.87;;;1.40;;
3843;SDS011;1937;51.444;6.484;2023-07-13T02:07:47;5.90;;;2.30;;
3843;SDS011;1937;51.444;6.484;2023-07-13T02:10:14;2.27;;;1.93;;
3843;SDS011;1937;51.444;6.484;2023-07-13T02:12:42;5.43;;;2.30;;
3843;SDS011;1937;51.444;6.484;2023-07-13T02:15:09;5.73;;;3.00;;
3843;SDS011;1937;51.444;6.484;2023-07-13T02:17:37;6.37;;;2.40;;
3843;SDS011;1937;51.444;6.484;2023-07-13T02:20:04;4.63;;;2.93;;
3843;SDS011;1937;51.444;6.484;2023-07-13T02:22:31;3.63;;;2.27;;
3843;SDS011;1937;51.444;6.484;2023-07-13T02:24:58;11.27;;;2.30;;
3843;SDS011;1937;51.444;6.484;2023-07-13T02:27:25;6.87;;;2.57;;
3843;SDS011;1937;51.444;6.484;2023-07-13T02:29:53;4.17;;;2.37;;
3843;SDS011;1937;51.444;6.484;2023-07-13T02:32:19;5.03;;;2.10;;
3843;SDS011;1937;51.444;6.484;2023-07-13T02:34:46;5.30;;;2.03;;
3843;SDS011;1937;51.444;6.484;2023-07-13T02:37:12;3.50;;;2.10;;
3843;SDS011;1937;51.444;6.484;2023-07-13T02:39:39;6.53;;;1.90;;
3843;SDS011;1937;51.444;6.484;2023-07-13T02:42:06;8.23;;;2.00;;
3843;SDS011;1937;51.444;6.484;2023-07-13T02:44:33;4.17;;;2.30;;
3843;SDS011;1937;51.444;6.484;2023-07-13T02:47:01;4.50;;;2.00;;
3843;SDS011;1937;51.444;6.484;2023-07-13T02:49:27;5.97;;;2.00;;
3843;SDS011;1937;51.444;6.484;2023-07-13T02:51:54;7.20;;;3.13;;
3843;SDS011;1937;51.444;6.484;2023-07-13T02:54:20;3.67;;;2.00;;
3843;SDS011;1937;51.444;6.484;2023-07-13T02:56:47;3.00;;;2.30;;
3843;SDS011;1937;51.444;6.484;2023-07-13T02:59:14;6.40;;;2.23;;
3843;SDS011;1937;51.444;6.484;2023-07-13T03:01:40;5.50;;;2.40;;
3843;SDS011;1937;51.444;6.484;2023-07-13T03:04:08;3.30;;;2.00;;
3843;SDS011;1937;51.444;6.484;2023-07-13T03:06:35;2.90;;;1.90;;
3843;SDS011;1937;51.444;6.484;2023-07-13T03:09:01;4.03;;;2.17;;
3843;SDS011;1937;51.444;6.484;2023-07-13T03:11:29;4.93;;;2.40;;
3843;SDS011;1937;51.444;6.484;2023-07-13T03:13:55;7.57;;;2.10;;
3843;SDS011;1937;51.444;6.484;2023-07-13T03:16:22;4.87;;;2.63;;
3843;SDS011;1937;51.444;6.484;2023-07-13T03:18:49;8.30;;;2.40;;
3843;SDS011;1937;51.444;6.484;2023-07-13T03:21:17;4.33;;;2.53;;
3843;SDS011;1937;51.444;6.484;2023-07-13T03:23:43;6.90;;;2.90;;
3843;SDS011;1937;51.444;6.484;2023-07-13T03:26:11;2.63;;;2.37;;
3843;SDS011;1937;51.444;6.484;2023-07-13T03:28:39;8.90;;;2.67;;
3843;SDS011;1937;51.444;6.484;2023-07-13T03:31:08;3.27;;;2.33;;
3843;SDS011;1937;51.444;6.484;2023-07-13T03:33:39;6.47;;;2.83;;
3843;SDS011;1937;51.444;6.484;2023-07-13T03:36:06;5.97;;;3.03;;
3843;SDS011;1937;51.444;6.484;2023-07-13T03:38:34;5.50;;;2.67;;
3843;SDS011;1937;51.444;6.484;2023-07-13T03:41:01;7.57;;;3.00;;
3843;SDS011;1937;51.444;6.484;2023-07-13T03:43:27;4.90;;;2.83;;
3843;SDS011;1937;51.444;6.484;2023-07-13T03:45:54;8.00;;;2.97;;
3843;SDS011;1937;51.444;6.484;2023-07-13T03:48:21;4.07;;;2.47;;
3843;SDS011;1937;51.444;6.484;2023-07-13T03:50:48;3.90;;;2.50;;
3843;SDS011;1937;51.444;6.484;2023-07-13T03:53:14;5.20;;;2.87;;
3843;SDS011;1937;51.444;6.484;2023-07-13T03:55:42;4.43;;;2.60;;
3843;SDS011;1937;51.444;6.484;2023-07-13T03:58:23;3.97;;;2.83;;
3843;SDS011;1937;51.444;6.484;2023-07-13T04:00:52;2.63;;;2.20;;
3843;SDS011;1937;51.444;6.484;2023-07-13T04:03:19;8.73;;;2.63;;
3843;SDS011;1937;51.444;6.484;2023-07-13T04:05:45;4.47;;;3.20;;
3843;SDS011;1937;51.444;6.484;2023-07-13T04:08:12;9.40;;;2.90;;
3843;SDS011;1937;51.444;6.484;2023-07-13T04:10:39;4.17;;;2.50;;
3843;SDS011;1937;51.444;6.484;2023-07-13T04:13:07;6.17;;;3.07;;
3843;SDS011;1937;51.444;6.484;2023-07-13T04:15:33;3.20;;;2.70;;
3843;SDS011;1937;51.444;6.484;2023-07-13T04:18:00;6.57;;;2.27;;
3843;SDS011;1937;51.444;6.484;2023-07-13T04:20:28;5.60;;;2.37;;
3843;SDS011;1937;51.444;6.484;2023-07-13T04:22:54;11.00;;;3.40;;
3843;SDS011;1937;51.444;6.484;2023-07-13T04:25:22;5.47;;;2.50;;
3843;SDS011;1937;51.444;6.484;2023-07-13T04:27:50;5.87;;;2.30;;
3843;SDS011;1937;51.444;6.484;2023-07-13T04:30:18;10.93;;;2.60;;
3843;SDS011;1937;51.444;6.484;2023-07-13T04:32:45;4.93;;;2.30;;
3843;SDS011;1937;51.444;6.484;2023-07-13T04:35:11;6.20;;;2.17;;
3843;SDS011;1937;51.444;6.484;2023-07-13T04:37:39;6.27;;;2.80;;
3843;SDS011;1937;51.444;6.484;2023-07-13T04:40:06;3.27;;;2.13;;
3843;SDS011;1937;51.444;6.484;2023-07-13T04:42:35;3.10;;;2.37;;
3843;SDS011;1937;51.444;6.484;2023-07-13T04:45:01;4.70;;;2.73;;
3843;SDS011;1937;51.444;6.484;2023-07-13T04:47:31;8.00;;;2.73;;
3843;SDS011;1937;51.444;6.484;2023-07-13T04:49:57;4.77;;;3.00;;
3843;SDS011;1937;51.444;6.484;2023-07-13T04:52:24;7.83;;;3.00;;
3843;SDS011;1937;51.444;6.484;2023-07-13T04:54:51;7.20;;;2.83;;
3843;SDS011;1937;51.444;6.484;2023-07-13T04:57:17;8.00;;;2.77;;
3843;SDS011;1937;51.444;6.484;2023-07-13T04:59:44;9.60;;;2.87;;
3843;SDS011;1937;51.444;6.484;2023-07-13T05:02:12;5.57;;;2.57;;
3843;SDS011;1937;51.444;6.484;2023-07-13T05:04:40;4.80;;;3.17;;
3843;SDS011;1937;51.444;6.484;2023-07-13T05:07:07;7.23;;;2.80;;
3843;SDS011;1937;51.444;6.484;2023-07-13T05:09:33;3.87;;;2.40;;
3843;SDS011;1937;51.444;6.484;2023-07-13T05:12:00;6.93;;;2.87;;
3843;SDS011;1937;51.444;6.484;2023-07-13T05:14:26;5.10;;;2.80;;
3843;SDS011;1937;51.444;6.484;2023-07-13T05:16:53;10.67;;;2.73;;
3843;SDS011;1937;51.444;6.484;2023-07-13T05:19:19;5.07;;;3.10;;
3843;SDS011;1937;51.444;6.484;2023-07-13T05:21:47;4.20;;;2.80;;
3843;SDS011;1937;51.444;6.484;2023-07-13T05:24:14;5.53;;;2.90;;
3843;SDS011;1937;51.444;6.484;2023-07-13T05:26:40;5.80;;;3.00;;
3843;SDS011;1937;51.444;6.484;2023-07-13T05:29:07;9.97;;;3.73;;
3843;SDS011;1937;51.444;6.484;2023-07-13T05:31:33;11.53;;;3.67;;
3843;SDS011;1937;51.444;6.484;2023-07-13T05:34:00;7.70;;;3.10;;
3843;SDS011;1937;51.444;6.484;2023-07-13T05:36:26;4.63;;;2.80;;
3843;SDS011;1937;51.444;6.484;2023-07-13T05:38:54;7.17;;;3.63;;
3843;SDS011;1937;51.444;6.484;2023-07-13T05:41:21;8.57;;;3.47;;
3843;SDS011;1937;51.444;6.484;2023-07-13T05:43:49;7.30;;;3.83;;
3843;SDS011;1937;51.444;6.484;2023-07-13T05:46:15;10.67;;;3.43;;
3843;SDS011;1937;51.444;6.484;2023-07-13T05:48:42;8.90;;;3.10;;
3843;SDS011;1937;51.444;6.484;2023-07-13T05:51:09;8.13;;;3.70;;
3843;SDS011;1937;51.444;6.484;2023-07-13T05:53:35;6.73;;;3.83;;
3843;SDS011;1937;51.444;6.484;2023-07-13T05:56:04;6.70;;;3.67;;
3843;SDS011;1937;51.444;6.484;2023-07-13T05:58:30;5.10;;;3.50;;
3843;SDS011;1937;51.444;6.484;2023-07-13T06:01:00;11.43;;;3.63;;
3843;SDS011;1937;51.444;6.484;2023-07-13T06:03:28;7.90;;;3.53;;
3843;SDS011;1937;51.444;6.484;2023-07-13T06:05:55;12.43;;;3.77;;
3843;SDS011;1937;51.444;6.484;2023-07-13T06:08:22;8.50;;;3.33;;
3843;SDS011;1937;51.444;6.484;2023-07-13T06:10:48;12.93;;;3.47;;
3843;SDS011;1937;51.444;6.484;2023-07-13T06:13:16;6.53;;;3.10;;
3843;SDS011;1937;51.444;6.484;2023-07-13T06:15:47;8.90;;;3.90;;
3843;SDS011;1937;51.444;6.484;2023-07-13T06:18:14;8.67;;;3.90;;
3843;SDS011;1937;51.444;6.484;2023-07-13T06:20:41;7.70;;;3.03;;
3843;SDS011;1937;51.444;6.484;2023-07-13T06:23:07;7.17;;;3.50;;
3843;SDS011;1937;51.444;6.484;2023-07-13T06:25:34;13.07;;;4.40;;
3843;SDS011;1937;51.444;6.484;2023-07-13T06:28:00;10.37;;;4.03;;
3843;SDS011;1937;51.444;6.484;2023-07-13T06:30:28;9.30;;;4.10;;
3843;SDS011;1937;51.444;6.484;2023-07-13T06:32:56;9.30;;;3.30;;
3843;SDS011;1937;51.444;6.484;2023-07-13T06:35:23;9.00;;;3.63;;
3843;SDS011;1937;51.444;6.484;2023-07-13T06:37:50;11.40;;;3.63;;
3843;SDS011;1937;51.444;6.484;2023-07-13T06:40:16;8.83;;;4.53;;
3843;SDS011;1937;51.444;6.484;2023-07-13T06:42:43;7.70;;;3.80;;
3843;SDS011;1937;51.444;6.484;2023-07-13T06:45:10;13.27;;;5.03;;
3843;SDS011;1937;51.444;6.484;2023-07-13T06:47:37;6.37;;;3.33;;
3843;SDS011;1937;51.444;6.484;2023-07-13T06:50:04;12.47;;;4.50;;
3843;SDS011;1937;51.444;6.484;2023-07-13T06:52:31;9.77;;;3.60;;
3843;SDS011;1937;51.444;6.484;2023-07-13T06:54:58;7.93;;;4.40;;
3843;SDS011;1937;51.444;6.484;2023-07-13T06:57:25;14.33;;;4.70;;
3843;SDS011;1937;51.444;6.484;2023-07-13T06:59:51;11.97;;;3.40;;
3843;SDS011;1937;51.444;6.484;2023-07-13T07:02:18;15.57;;;4.50;;
3843;SDS011;1937;51.444;6.484;2023-07-13T07:04:46;9.93;;;3.57;;
3843;SDS011;1937;51.444;6.484;2023-07-13T07:07:12;8.80;;;4.20;;
3843;SDS011;1937;51.444;6.484;2023-07-13T07:09:39;15.47;;;3.80;;
3843;SDS011;1937;51.444;6.484;2023-07-13T07:12:05;11.10;;;4.70;;
3843;SDS011;1937;51.444;6.484;2023-07-13T07:14:33;9.20;;;3.83;;
3843;SDS011;1937;51.444;6.484;2023-07-13T07:16:59;6.37;;;3.70;;
3843;SDS011;1937;51.444;6.484;2023-07-13T07:19:27;8.70;;;4.37;;
3843;SDS011;1937;51.444;6.484;2023-07-13T07:21:56;7.20;;;3.60;;
3843;SDS011;1937;51.444;6.484;2023-07-13T07:24:23;12.77;;;4.37;;
3843;SDS011;1937;51.444;6.484;2023-07-13T07:26:49;8.20;;;4.30;;
3843;SDS011;1937;51.444;6.484;2023-07-13T07:29:16;7.57;;;4.80;;
3843;SDS011;1937;51.444;6.484;2023-07-13T07:31:43;10.10;;;4.73;;
3843;SDS011;1937;51.444;6.484;2023-07-13T07:34:09;7.90;;;3.63;;
3843;SDS011;1937;51.444;6.484;2023-07-13T07:36:36;4.97;;;3.17;;
3843;SDS011;1937;51.444;6.484;2023-07-13T07:39:04;10.03;;;3.43;;
3843;SDS011;1937;51.444;6.484;2023-07-13T07:41:31;9.37;;;3.90;;
3843;SDS011;1937;51.444;6.484;2023-07-13T07:43:58;7.20;;;3.80;;
3843;SDS011;1937;51.444;6.484;2023-07-13T07:46:24;8.83;;;3.80;;
3843;SDS011;1937;51.444;6.484;2023-07-13T07:48:51;13.43;;;3.90;;
3843;SDS011;1937;51.444;6.484;2023-07-13T07:51:17;8.93;;;3.97;;
3843;SDS011;1937;51.444;6.484;2023-07-13T07:53:44;5.87;;;3.77;;
3843;SDS011;1937;51.444;6.484;2023-07-13T07:56:12;7.63;;;3.47;;
3843;SDS011;1937;51.444;6.484;2023-07-13T07:58:41;7.60;;;3.70;;
3843;SDS011;1937;51.444;6.484;2023-07-13T08:01:08;6.03;;;3.43;;
3843;SDS011;1937;51.444;6.484;2023-07-13T08:03:34;7.70;;;3.20;;
3843;SDS011;1937;51.444;6.484;2023-07-13T08:06:01;8.40;;;3.40;;
3843;SDS011;1937;51.444;6.484;2023-07-13T08:08:28;8.63;;;4.43;;
3843;SDS011;1937;51.444;6.484;2023-07-13T08:10:54;5.80;;;3.10;;
3843;SDS011;1937;51.444;6.484;2023-07-13T08:13:22;4.27;;;2.93;;
3843;SDS011;1937;51.444;6.484;2023-07-13T08:15:49;5.60;;;3.00;;
3843;SDS011;1937;51.444;6.484;2023-07-13T08:18:16;6.37;;;3.60;;
3843;SDS011;1937;51.444;6.484;2023-07-13T08:20:42;4.87;;;3.40;;
3843;SDS011;1937;51.444;6.484;2023-07-13T08:23:09;17.10;;;5.40;;
3843;SDS011;1937;51.444;6.484;2023-07-13T08:25:36;10.17;;;3.63;;
3843;SDS011;1937;51.444;6.484;2023-07-13T08:28:03;5.13;;;4.07;;
3843;SDS011;1937;51.444;6.484;2023-07-13T08:30:31;7.80;;;3.13;;
3843;SDS011;1937;51.444;6.484;2023-07-13T08:32:58;7.27;;;3.33;;
3843;SDS011;1937;51.444;6.484;2023-07-13T08:35:24;9.57;;;3.73;;
3843;SDS011;1937;51.444;6.484;2023-07-13T08:37:51;4.47;;;3.13;;
3843;SDS011;1937;51.444;6.484;2023-07-13T08:40:18;8.37;;;3.57;;
3843;SDS011;1937;51.444;6.484;2023-07-13T08:42:51;6.73;;;3.03;;
3843;SDS011;1937;51.444;6.484;2023-07-13T08:45:22;8.07;;;3.30;;
3843;SDS011;1937;51.444;6.484;2023-07-13T08:47:56;8.57;;;4.07;;
3843;SDS011;1937;51.444;6.484;2023-07-13T08:50:29;14.40;;;5.27;;
3843;SDS011;1937;51.444;6.484;2023-07-13T08:52:59;7.03;;;3.50;;
3843;SDS011;1937;51.444;6.484;2023-07-13T08:55:29;8.53;;;3.60;;
3843;SDS011;1937;51.444;6.484;2023-07-13T08:58:00;7.80;;;4.37;;
3843;SDS011;1937;51.444;6.484;2023-07-13T09:00:34;6.93;;;3.33;;
3843;SDS011;1937;51.444;6.484;2023-07-13T09:03:12;6.77;;;3.93;;
3843;SDS011;1937;51.444;6.484;2023-07-13T09:05:47;9.63;;;4.03;;
3843;SDS011;1937;51.444;6.484;2023-07-13T09:08:23;5.57;;;3.47;;
3843;SDS011;1937;51.444;6.484;2023-07-13T09:11:10;7.57;;;4.10;;
3843;SDS011;1937;51.444;6.484;2023-07-13T09:13:49;11.93;;;4.40;;
3843;SDS011;1937;51.444;6.484;2023-07-13T09:16:23;8.77;;;3.13;;
3843;SDS011;1937;51.444;6.484;2023-07-13T09:18:52;10.87;;;4.33;;
3843;SDS011;1937;51.444;6.484;2023-07-13T09:21:23;10.07;;;3.60;;
3843;SDS011;1937;51.444;6.484;2023-07-13T09:23:58;9.40;;;4.43;;
3843;SDS011;1937;51.444;6.484;2023-07-13T09:26:28;10.93;;;3.57;;
3843;SDS011;1937;51.444;6.484;2023-07-13T09:28:59;7.30;;;3.50;;
3843;SDS011;1937;51.444;6.484;2023-07-13T09:31:37;6.17;;;3.27;;
3843;SDS011;1937;51.444;6.484;2023-07-13T09:34:09;11.17;;;3.53;;
3843;SDS011;1937;51.444;6.484;2023-07-13T09:36:38;6.73;;;3.37;;
3843;SDS011;1937;51.444;6.484;2023-07-13T09:39:05;6.60;;;3.40;;
3843;SDS011;1937;51.444;6.484;2023-07-13T09:41:40;7.80;;;3.93;;
3843;SDS011;1937;51.444;6.484;2023-07-13T09:44:14;9.87;;;3.80;;
3843;SDS011;1937;51.444;6.484;2023-07-13T09:46:43;9.90;;;3.67;;
3843;SDS011;1937;51.444;6.484;2023-07-13T09:49:13;6.10;;;3.37;;
3843;SDS011;1937;51.444;6.484;2023-07-13T09:51:40;10.20;;;4.10;;
3843;SDS011;1937;51.444;6.484;2023-07-13T09:54:16;4.50;;;3.00;;
3843;SDS011;1937;51.444;6.484;2023-07-13T09:56:45;6.80;;;3.27;;
3843;SDS011;1937;51.444;6.484;2023-07-13T09:59:18;10.00;;;4.10;;
3843;SDS011;1937;51.444;6.484;2023-07-13T10:01:45;7.47;;;3.10;;
3843;SDS011;1937;51.444;6.484;2023-07-13T10:04:16;8.17;;;2.50;;
3843;SDS011;1937;51.444;6.484;2023-07-13T10:06:44;8.40;;;3.40;;
3843;SDS011;1937;51.444;6.484;2023-07-13T10:09:13;6.07;;;3.47;;
3843;SDS011;1937;51.444;6.484;2023-07-13T10:11:42;5.43;;;2.90;;
3843;SDS011;1937;51.444;6.484;2023-07-13T10:14:10;11.33;;;3.53;;
3843;SDS011;1937;51.444;6.484;2023-07-13T10:16:40;7.17;;;2.90;;
3843;SDS011;1937;51.444;6.484;2023-07-13T10:19:11;5.60;;;2.60;;
3843;SDS011;1937;51.444;6.484;2023-07-13T10:21:43;6.60;;;2.93;;
3843;SDS011;1937;51.444;6.484;2023-07-13T10:24:17;8.00;;;3.37;;
3843;SDS011;1937;51.444;6.484;2023-07-13T10:26:48;6.27;;;3.10;;
3843;SDS011;1937;51.444;6.484;2023-07-13T10:29:20;6.13;;;2.13;;
3843;SDS011;1937;51.444;6.484;2023-07-13T10:31:50;5.77;;;2.67;;
3843;SDS011;1937;51.444;6.484;2023-07-13T10:34:17;3.60;;;3.17;;
3843;SDS011;1937;51.444;6.484;2023-07-13T10:36:46;6.63;;;2.50;;
3843;SDS011;1937;51.444;6.484;2023-07-13T10:39:15;6.37;;;2.60;;
3843;SDS011;1937;51.444;6.484;2023-07-13T10:41:44;3.93;;;2.57;;
3843;SDS011;1937;51.444;6.484;2023-07-13T10:44:21;9.10;;;3.20;;
3843;SDS011;1937;51.444;6.484;2023-07-13T10:46:51;5.37;;;2.60;;
3843;SDS011;1937;51.444;6.484;2023-07-13T10:49:20;8.20;;;2.30;;
3843;SDS011;1937;51.444;6.484;2023-07-13T10:51:49;4.33;;;3.20;;
3843;SDS011;1937;51.444;6.484;2023-07-13T10:54:18;8.23;;;2.57;;
3843;SDS011;1937;51.444;6.484;2023-07-13T10:56:49;5.93;;;3.13;;
3843;SDS011;1937;51.444;6.484;2023-07-13T10:59:18;4.80;;;2.63;;
3843;SDS011;1937;51.444;6.484;2023-07-13T11:01:54;9.33;;;2.60;;
3843;SDS011;1937;51.444;6.484;2023-07-13T11:04:23;7.80;;;2.60;;
3843;SDS011;1937;51.444;6.484;2023-07-13T11:06:56;3.30;;;2.57;;
3843;SDS011;1937;51.444;6.484;2023-07-13T11:09:30;5.60;;;2.37;;
3843;SDS011;1937;51.444;6.484;2023-07-13T11:11:59;3.57;;;2.20;;
3843;SDS011;1937;51.444;6.484;2023-07-13T11:14:31;4.60;;;2.20;;
3843;SDS011;1937;51.444;6.484;2023-07-13T11:20:07;3.70;;;2.37;;
3843;SDS011;1937;51.444;6.484;2023-07-13T11:22:45;2.53;;;1.80;;
3843;SDS011;1937;51.444;6.484;2023-07-13T11:25:27;5.10;;;2.57;;
3843;SDS011;1937;51.444;6.484;2023-07-13T11:28:16;5.90;;;2.27;;
3843;SDS011;1937;51.444;6.484;2023-07-13T11:30:46;5.63;;;2.00;;
3843;SDS011;1937;51.444;6.484;2023-07-13T11:33:16;3.03;;;2.03;;
3843;SDS011;1937;51.444;6.484;2023-07-13T11:35:49;6.10;;;2.47;;
3843;SDS011;1937;51.444;6.484;2023-07-13T11:38:33;4.77;;;2.27;;
3843;SDS011;1937;51.444;6.484;2023-07-13T11:41:03;2.50;;;1.60;;
3843;SDS011;1937;51.444;6.484;2023-07-13T11:43:32;4.10;;;2.57;;
3843;SDS011;1937;51.444;6.484;2023-07-13T11:46:11;4.47;;;2.10;;
3843;SDS011;1937;51.444;6.484;2023-07-13T11:48:39;4.40;;;2.30;;
3843;SDS011;1937;51.444;6.484;2023-07-13T11:51:09;3.60;;;2.20;;
3843;SDS011;1937;51.444;6.484;2023-07-13T11:53:47;6.60;;;2.30;;
3843;SDS011;1937;51.444;6.484;2023-07-13T11:56:16;6.40;;;1.93;;
3843;SDS011;1937;51.444;6.484;2023-07-13T11:58:43;7.60;;;2.30;;
3843;SDS011;1937;51.444;6.484;2023-07-13T12:01:15;9.60;;;2.10;;
3843;SDS011;1937;51.444;6.484;2023-07-13T12:03:45;4.40;;;2.10;;
3843;SDS011;1937;51.444;6.484;2023-07-13T12:06:21;4.70;;;2.60;;
3843;SDS011;1937;51.444;6.484;2023-07-13T12:08:55;3.43;;;2.13;;
3843;SDS011;1937;51.444;6.484;2023-07-13T12:11:22;7.87;;;2.27;;
3843;SDS011;1937;51.444;6.484;2023-07-13T12:13:49;3.87;;;1.90;;
3843;SDS011;1937;51.444;6.484;2023-07-13T12:16:17;3.43;;;1.97;;
3843;SDS011;1937;51.444;6.484;2023-07-13T12:18:53;7.60;;;3.20;;
3843;SDS011;1937;51.444;6.484;2023-07-13T12:21:21;6.00;;;3.23;;
3843;SDS011;1937;51.444;6.484;2023-07-13T12:23:55;5.43;;;2.70;;
3843;SDS011;1937;51.444;6.484;2023-07-13T12:26:21;5.40;;;2.33;;
3843;SDS011;1937;51.444;6.484;2023-07-13T12:28:49;5.57;;;2.87;;
3843;SDS011;1937;51.444;6.484;2023-07-13T12:31:25;6.93;;;2.90;;
3843;SDS011;1937;51.444;6.484;2023-07-13T12:33:56;3.73;;;2.40;;
3843;SDS011;1937;51.444;6.484;2023-07-13T12:36:24;10.30;;;3.07;;
3843;SDS011;1937;51.444;6.484;2023-07-13T12:38:52;6.40;;;2.80;;
3843;SDS011;1937;51.444;6.484;2023-07-13T12:41:20;4.17;;;2.53;;
3843;SDS011;1937;51.444;6.484;2023-07-13T12:43:48;4.20;;;2.53;;
3843;SDS011;1937;51.444;6.484;2023-07-13T12:46:16;3.17;;;2.03;;
3843;SDS011;1937;51.444;6.484;2023-07-13T12:48:48;4.63;;;2.00;;
3843;SDS011;1937;51.444;6.484;2023-07-13T12:51:16;3.67;;;2.23;;
3843;SDS011;1937;51.444;6.484;2023-07-13T12:53:43;2.90;;;2.13;;
3843;SDS011;1937;51.444;6.484;2023-07-13T12:56:16;1.80;;;1.70;;
3843;SDS011;1937;51.444;6.484;2023-07-13T12:58:47;1.93;;;1.73;;
3843;SDS011;1937;51.444;6.484;2023-07-13T13:01:19;3.90;;;2.00;;
3843;SDS011;1937;51.444;6.484;2023-07-13T13:03:48;3.47;;;1.90;;
3843;SDS011;1937;51.444;6.484;2023-07-13T13:06:20;4.93;;;2.30;;
3843;SDS011;1937;51.444;6.484;2023-07-13T13:08:48;5.83;;;1.77;;
3843;SDS011;1937;51.444;6.484;2023-07-13T13:11:17;6.33;;;2.50;;
3843;SDS011;1937;51.444;6.484;2023-07-13T13:13:45;2.33;;;1.97;;
3843;SDS011;1937;51.444;6.484;2023-07-13T13:16:14;5.90;;;2.60;;
3843;SDS011;1937;51.444;6.484;2023-07-13T13:18:45;4.43;;;2.37;;
3843;SDS011;1937;51.444;6.484;2023-07-13T13:21:16;2.30;;;2.10;;
3843;SDS011;1937;51.444;6.484;2023-07-13T13:23:43;6.60;;;2.40;;
3843;SDS011;1937;51.444;6.484;2023-07-13T13:26:11;4.67;;;2.00;;
3843;SDS011;1937;51.444;6.484;2023-07-13T13:28:38;4.57;;;2.00;;
3843;SDS011;1937;51.444;6.484;2023-07-13T13:31:05;4.27;;;3.10;;
3843;SDS011;1937;51.444;6.484;2023-07-13T13:33:33;2.20;;;1.87;;
3843;SDS011;1937;51.444;6.484;2023-07-13T13:35:59;7.03;;;3.27;;
3843;SDS011;1937;51.444;6.484;2023-07-13T13:38:26;5.13;;;2.03;;
3843;SDS011;1937;51.444;6.484;2023-07-13T13:40:53;3.63;;;2.13;;
3843;SDS011;1937;51.444;6.484;2023-07-13T13:43:21;3.73;;;1.90;;
3843;SDS011;1937;51.444;6.484;2023-07-13T13:45:51;4.60;;;2.00;;
3843;SDS011;1937;51.444;6.484;2023-07-13T13:48:21;4.87;;;2.60;;
3843;SDS011;1937;51.444;6.484;2023-07-13T13:50:56;6.70;;;3.00;;
3843;SDS011;1937;51.444;6.484;2023-07-13T13:53:24;4.83;;;3.10;;
3843;SDS011;1937;51.444;6.484;2023-07-13T13:55:50;4.60;;;2.73;;
3843;SDS011;1937;51.444;6.484;2023-07-13T13:58:17;5.63;;;2.90;;
3843;SDS011;1937;51.444;6.484;2023-07-13T14:00:44;4.73;;;2.80;;
3843;SDS011;1937;51.444;6.484;2023-07-13T14:03:14;6.07;;;3.20;;
3843;SDS011;1937;51.444;6.484;2023-07-13T14:05:43;7.20;;;3.63;;
3843;SDS011;1937;51.444;6.484;2023-07-13T14:08:13;6.40;;;2.40;;
3843;SDS011;1937;51.444;6.484;2023-07-13T14:10:40;5.90;;;2.77;;
3843;SDS011;1937;51.444;6.484;2023-07-13T14:13:13;4.60;;;2.50;;
3843;SDS011;1937;51.444;6.484;2023-07-13T14:15:43;4.20;;;2.30;;
3843;SDS011;1937;51.444;6.484;2023-07-13T14:18:10;7.13;;;2.33;;
3843;SDS011;1937;51.444;6.484;2023-07-13T14:20:42;4.87;;;2.97;;
3843;SDS011;1937;51.444;6.484;2023-07-13T14:23:09;3.90;;;2.80;;
3843;SDS011;1937;51.444;6.484;2023-07-13T14:25:37;4.40;;;2.33;;
3843;SDS011;1937;51.444;6.484;2023-07-13T14:28:10;12.17;;;3.60;;
3843;SDS011;1937;51.444;6.484;2023-07-13T14:30:45;5.37;;;3.27;;
3843;SDS011;1937;51.444;6.484;2023-07-13T14:33:12;5.83;;;3.77;;
3843;SDS011;1937;51.444;6.484;2023-07-13T14:35:39;8.10;;;2.83;;
3843;SDS011;1937;51.444;6.484;2023-07-13T14:38:08;3.10;;;2.60;;
3843;SDS011;1937;51.444;6.484;2023-07-13T14:40:39;11.03;;;2.80;;
3843;SDS011;1937;51.444;6.484;2023-07-13T14:43:07;4.43;;;2.43;;
3843;SDS011;1937;51.444;6.484;2023-07-13T14:45:37;5.13;;;2.23;;
3843;SDS011;1937;51.444;6.484;2023-07-13T14:48:09;3.23;;;2.50;;
3843;SDS011;1937;51.444;6.484;2023-07-13T14:50:41;4.10;;;3.10;;
3843;SDS011;1937;51.444;6.484;2023-07-13T14:53:09;3.67;;;2.87;;
3843;SDS011;1937;51.444;6.484;2023-07-13T14:55:36;5.80;;;2.97;;
3843;SDS011;1937;51.444;6.484;2023-07-13T14:58:05;6.40;;;2.93;;
3843;SDS011;1937;51.444;6.484;2023-07-13T15:00:32;4.30;;;3.10;;
3843;SDS011;1937;51.444;6.484;2023-07-13T15:02:59;5.30;;;3.27;;
3843;SDS011;1937;51.444;6.484;2023-07-13T15:05:27;4.40;;;2.93;;
3843;SDS011;1937;51.444;6.484;2023-07-13T15:07:57;5.13;;;3.47;;
3843;SDS011;1937;51.444;6.484;2023-07-13T15:10:27;6.07;;;3.47;;
3843;SDS011;1937;51.444;6.484;2023-07-13T15:12:57;6.00;;;3.40;;
3843;SDS011;1937;51.444;6.484;2023-07-13T15:15:28;5.07;;;3.07;;
3843;SDS011;1937;51.444;6.484;2023-07-13T15:17:56;4.20;;;2.90;;
3843;SDS011;1937;51.444;6.484;2023-07-13T15:20:25;7.30;;;3.40;;
3843;SDS011;1937;51.444;6.484;2023-07-13T15:22:53;4.97;;;3.20;;
3843;SDS011;1937;51.444;6.484;2023-07-13T15:25:22;3.53;;;2.63;;
3843;SDS011;1937;51.444;6.484;2023-07-13T15:27:50;5.13;;;3.23;;
3843;SDS011;1937;51.444;6.484;2023-07-13T15:30:18;3.50;;;3.00;;